createdAt,value
2022-09-05T00:02:09.559Z,15.80
2022-09-05T00:04:48.003Z,15.70
2022-09-05T00:07:57.666Z,15.70
2022-09-05T00:10:37.357Z,15.60
2022-09-05T00:13:18.930Z,14.40
2022-09-05T00:16:05.824Z,15.60
2022-09-05T00:24:21.632Z,14.90
2022-09-05T00:24:26.253Z,15.50
2022-09-05T00:25:33.943Z,15.50
2022-09-05T00:28:25.702Z,15.40
2022-09-05T00:31:54.898Z,15.30
2022-09-05T00:34:55.908Z,15.30
2022-09-05T00:37:33.154Z,15.30
2022-09-05T00:40:29.729Z,15.30
2022-09-05T00:43:05.704Z,15.30
2022-09-05T00:45:40.935Z,15.30
2022-09-05T00:48:30.385Z,15.30
2022-09-05T00:51:15.863Z,15.40
2022-09-05T00:54:03.288Z,15.30
2022-09-05T00:57:00.742Z,15.40
2022-09-05T01:00:03.074Z,15.30
2022-09-05T01:02:55.012Z,15.20
2022-09-05T01:05:46.078Z,15.30
2022-09-05T01:08:52.178Z,15.20
2022-09-05T01:11:42.041Z,15.10
2022-09-05T01:14:32.455Z,15.10
2022-09-05T01:17:20.606Z,15.00
2022-09-05T01:20:29.733Z,14.90
2022-09-05T01:23:44.880Z,14.90
2022-09-05T01:27:09.925Z,14.90
2022-09-05T01:29:51.526Z,14.80
2022-09-05T01:32:31.135Z,14.80
2022-09-05T01:36:03.385Z,14.80
2022-09-05T01:39:18.527Z,13.90
2022-09-05T01:41:46.211Z,14.90
2022-09-05T01:44:31.852Z,14.80
2022-09-05T01:47:29.369Z,14.80
2022-09-05T01:50:15.077Z,14.70
2022-09-05T01:56:04.846Z,14.70
2022-09-05T01:59:04.685Z,14.70
2022-09-05T02:01:50.089Z,14.80
2022-09-05T02:04:52.602Z,14.80
2022-09-05T02:07:38.611Z,14.80
2022-09-05T02:10:40.516Z,14.90
2022-09-05T02:13:24.824Z,14.90
2022-09-05T02:16:05.556Z,15.70
2022-09-05T02:18:55.504Z,14.80
2022-09-05T02:21:55.621Z,14.70
2022-09-05T02:24:35.906Z,14.70
2022-09-05T02:28:03.460Z,14.70
2022-09-05T02:33:10.602Z,14.70
2022-09-05T02:35:51.458Z,14.70
2022-09-05T02:39:22.742Z,14.70
2022-09-05T02:45:09.513Z,14.70
2022-09-05T02:45:17.256Z,14.60
2022-09-05T02:47:31.386Z,14.60
2022-09-05T02:53:57.821Z,14.50
2022-09-05T02:57:41.358Z,14.40
2022-09-05T02:57:46.253Z,14.40
2022-09-05T02:59:48.461Z,14.30
2022-09-05T03:02:31.231Z,14.40
2022-09-05T03:05:13.552Z,14.40
2022-09-05T03:08:10.370Z,14.30
2022-09-05T03:11:39.843Z,14.30
2022-09-05T03:17:55.613Z,14.20
2022-09-05T03:21:32.168Z,14.20
2022-09-05T03:24:55.844Z,14.20
2022-09-05T03:28:23.479Z,14.30
2022-09-05T03:34:57.705Z,14.20
2022-09-05T03:38:10.941Z,14.10
2022-09-05T03:41:18.824Z,14.10
2022-09-05T03:44:16.512Z,14.10
2022-09-05T03:47:13.566Z,13.90
2022-09-05T03:57:11.072Z,13.80
2022-09-05T03:57:17.490Z,13.70
2022-09-05T03:59:59.781Z,13.70
2022-09-05T04:04:51.274Z,13.40
2022-09-05T04:08:18.447Z,13.70
2022-09-05T04:08:36.984Z,13.70
2022-09-05T04:11:17.484Z,14.40
2022-09-05T04:13:52.618Z,13.70
2022-09-05T04:16:29.955Z,13.80
2022-09-05T04:21:49.941Z,13.80
2022-09-05T04:24:31.989Z,13.90
2022-09-05T04:27:30.097Z,13.90
2022-09-05T04:30:14.725Z,13.90
2022-09-05T04:33:04.286Z,13.80
2022-09-05T04:35:46.888Z,13.80
2022-09-05T04:38:18.147Z,13.80
2022-09-05T04:40:57.551Z,13.80
2022-09-05T04:43:34.914Z,14.70
2022-09-05T04:46:19.194Z,15.00
2022-09-05T04:49:01.652Z,13.80
2022-09-05T04:52:31.634Z,13.80
2022-09-05T04:55:08.923Z,13.80
2022-09-05T04:57:49.599Z,13.80
2022-09-05T05:05:58.241Z,13.90
2022-09-05T05:06:09.763Z,13.90
2022-09-05T05:06:42.254Z,14.00
2022-09-05T05:09:23.936Z,17.20
2022-09-05T05:17:25.380Z,14.00
2022-09-05T05:18:16.248Z,14.10
2022-09-05T05:20:54.669Z,14.20
2022-09-05T05:23:37.189Z,14.20
2022-09-05T05:26:11.540Z,13.30
2022-09-05T05:28:57.433Z,14.40
2022-09-05T05:31:32.069Z,14.40
2022-09-05T05:34:16.186Z,14.60
2022-09-05T05:37:02.927Z,14.70
2022-09-05T05:39:40.713Z,14.80
2022-09-05T05:42:20.682Z,15.00
2022-09-05T05:47:32.372Z,15.40
2022-09-05T05:50:11.513Z,15.80
2022-09-05T05:53:33.436Z,16.20
2022-09-05T05:56:41.808Z,16.60
2022-09-05T05:59:56.804Z,17.00
2022-09-05T06:03:26.443Z,17.30
2022-09-05T06:06:15.965Z,17.80
2022-09-05T06:14:48.504Z,18.00
2022-09-05T06:14:58.563Z,18.40
2022-09-05T06:17:09.689Z,18.70
2022-09-05T06:23:41.938Z,19.20
2022-09-05T06:27:15.115Z,19.50
2022-09-05T06:29:59.404Z,19.70
2022-09-05T06:32:58.623Z,19.90
2022-09-05T06:35:47.231Z,20.00
2022-09-05T06:38:51.957Z,20.00
2022-09-05T06:41:35.007Z,20.10
2022-09-05T06:44:52.998Z,20.40
2022-09-05T06:47:34.347Z,20.60
2022-09-05T06:50:26.900Z,20.90
2022-09-05T06:53:40.170Z,21.00
2022-09-05T06:56:37.100Z,21.00
2022-09-05T06:59:49.929Z,21.30
2022-09-05T07:02:58.333Z,21.60
2022-09-05T07:05:40.245Z,21.80
2022-09-05T07:08:35.609Z,22.10
2022-09-05T07:11:18.100Z,22.30
2022-09-05T07:14:03.728Z,22.10
2022-09-05T07:16:47.488Z,22.00
2022-09-05T07:19:31.645Z,21.70
2022-09-05T07:22:47.739Z,21.70
2022-09-05T07:25:21.805Z,21.70
2022-09-05T07:28:28.792Z,21.60
2022-09-05T07:30:52.124Z,21.70
2022-09-05T07:33:28.834Z,21.50
2022-09-05T07:36:09.338Z,21.50
2022-09-05T07:38:45.589Z,21.70
2022-09-05T07:41:29.711Z,21.10
2022-09-05T07:44:06.612Z,22.00
2022-09-05T07:46:40.071Z,22.10
2022-09-05T07:49:14.683Z,21.30
2022-09-05T07:56:51.197Z,22.80
2022-09-05T07:57:00.663Z,21.90
2022-09-05T07:57:51.666Z,24.30
2022-09-05T08:00:27.011Z,23.70
2022-09-05T08:03:02.033Z,23.40
2022-09-05T08:05:43.591Z,23.40
2022-09-05T08:08:22.924Z,23.80
2022-09-05T08:11:25.825Z,24.20
2022-09-05T08:14:40.505Z,24.10
2022-09-05T08:16:48.666Z,24.10
2022-09-05T08:19:50.055Z,24.20
2022-09-05T08:22:24.003Z,24.00
2022-09-05T08:25:04.481Z,24.20
2022-09-05T08:27:55.146Z,24.30
2022-09-05T08:30:26.450Z,24.60
2022-09-05T08:33:10.340Z,24.60
2022-09-05T08:35:45.094Z,24.40
2022-09-05T08:38:15.820Z,24.20
2022-09-05T08:40:56.376Z,24.10
2022-09-05T08:45:09.193Z,24.40
2022-09-05T08:46:44.899Z,24.70
2022-09-05T08:49:50.588Z,25.10
2022-09-05T08:52:35.112Z,25.60
2022-09-05T08:55:20.002Z,25.70
2022-09-05T08:58:10.813Z,26.00
2022-09-05T09:00:56.520Z,26.40
2022-09-05T09:03:41.962Z,26.60
2022-09-05T09:07:47.625Z,27.00
2022-09-05T09:10:01.774Z,27.10
2022-09-05T09:13:09.659Z,27.50
2022-09-05T09:15:46.224Z,27.80
2022-09-05T09:18:17.779Z,27.90
2022-09-05T09:20:53.924Z,27.70
2022-09-05T09:23:49.573Z,27.90
2022-09-05T09:26:24.522Z,28.20
2022-09-05T09:29:03.859Z,28.60
2022-09-05T09:32:02.741Z,28.70
2022-09-05T09:34:56.224Z,28.40
2022-09-05T09:38:00.670Z,28.90
2022-09-05T09:41:07.989Z,29.00
2022-09-05T09:44:15.557Z,28.50
2022-09-05T09:46:50.706Z,28.60
2022-09-05T09:49:52.372Z,28.70
2022-09-05T09:52:57.724Z,28.70
2022-09-05T09:56:20.140Z,28.40
2022-09-05T09:59:14.750Z,28.90
2022-09-05T10:01:55.152Z,29.30
2022-09-05T10:10:50.597Z,29.60
2022-09-05T10:11:09.179Z,29.60
2022-09-05T10:11:53.056Z,30.00
2022-09-05T10:15:00.324Z,29.50
2022-09-05T10:18:25.190Z,29.90
2022-09-05T10:21:35.866Z,30.00
2022-09-05T10:24:49.536Z,30.20
2022-09-05T10:27:50.640Z,30.80
2022-09-05T10:32:26.024Z,31.00
2022-09-05T10:35:13.251Z,31.30
2022-09-05T10:36:40.798Z,31.40
2022-09-05T10:39:21.278Z,31.00
2022-09-05T10:41:56.724Z,31.20
2022-09-05T10:44:40.493Z,31.50
2022-09-05T10:47:26.594Z,31.90
2022-09-05T10:50:12.641Z,31.80
2022-09-05T10:53:16.802Z,31.50
2022-09-05T10:56:01.214Z,31.30
2022-09-05T11:02:20.212Z,31.20
2022-09-05T11:02:30.288Z,31.50
2022-09-05T11:05:12.861Z,31.30
2022-09-05T11:07:52.794Z,31.80
2022-09-05T11:10:32.053Z,31.70
2022-09-05T11:13:16.250Z,30.00
2022-09-05T11:16:04.795Z,31.80
2022-09-05T11:19:04.825Z,31.70
2022-09-05T11:22:13.669Z,31.90
2022-09-05T11:24:52.115Z,32.50
2022-09-05T11:27:31.729Z,32.50
2022-09-05T11:30:07.489Z,32.50
2022-09-05T11:39:54.894Z,32.60
2022-09-05T11:40:00.056Z,32.60
2022-09-05T11:40:04.352Z,32.60
2022-09-05T11:42:42.675Z,31.90
2022-09-05T11:45:56.799Z,31.70
2022-09-05T11:49:01.938Z,31.90
2022-09-05T11:52:17.256Z,32.60
2022-09-05T11:55:29.169Z,32.10
2022-09-05T11:58:44.962Z,32.40
2022-09-05T12:01:44.095Z,32.40
2022-09-05T12:04:40.128Z,33.10
2022-09-05T12:07:45.752Z,33.40
2022-09-05T12:10:46.753Z,33.30
2022-09-05T12:13:42.509Z,33.00
2022-09-05T12:16:46.043Z,33.80
2022-09-05T12:19:27.961Z,33.90
2022-09-05T12:22:27.731Z,33.70
2022-09-05T12:27:39.351Z,33.20
2022-09-05T12:29:27.741Z,33.20
2022-09-05T12:33:43.744Z,33.90
2022-09-05T12:36:04.871Z,33.50
2022-09-05T12:41:37.581Z,32.50
2022-09-05T12:41:42.465Z,32.70
2022-09-05T12:44:29.856Z,32.60
2022-09-05T12:46:33.156Z,32.80
2022-09-05T12:49:08.516Z,32.90
2022-09-05T12:51:47.784Z,33.10
2022-09-05T12:54:33.294Z,32.90
2022-09-05T12:58:13.798Z,32.70
2022-09-05T13:02:58.987Z,32.50
2022-09-05T13:03:28.338Z,31.90
2022-09-05T13:06:06.426Z,33.90
2022-09-05T13:08:59.083Z,31.40
2022-09-05T13:14:49.162Z,31.30
2022-09-05T13:14:58.898Z,31.30
2022-09-05T13:17:44.426Z,31.60
2022-09-05T13:20:21.292Z,31.50
2022-09-05T13:22:52.985Z,31.90
2022-09-05T13:25:28.569Z,32.00
2022-09-05T13:28:05.047Z,31.90
2022-09-05T13:37:56.602Z,31.70
2022-09-05T13:38:03.851Z,32.10
2022-09-05T13:38:13.697Z,31.30
2022-09-05T13:39:55.035Z,31.10
2022-09-05T13:42:27.978Z,31.40
2022-09-05T13:45:00.921Z,31.50
2022-09-05T13:47:54.908Z,31.10
2022-09-05T13:50:29.513Z,30.70
2022-09-05T13:53:05.716Z,31.00
2022-09-05T13:55:45.809Z,31.00
2022-09-05T13:58:29.852Z,31.00
2022-09-05T14:05:05.937Z,31.70
2022-09-05T14:08:27.246Z,31.90
2022-09-05T14:11:48.102Z,32.60
2022-09-05T14:17:53.690Z,32.50
2022-09-05T14:20:43.738Z,32.30
2022-09-05T14:23:24.789Z,31.70
2022-09-05T14:26:01.133Z,32.00
2022-09-05T14:28:37.612Z,32.00
2022-09-05T14:34:43.287Z,31.90
2022-09-05T14:37:40.627Z,32.20
2022-09-05T14:38:05.608Z,31.60
2022-09-05T14:41:33.509Z,31.50
2022-09-05T14:48:34.293Z,29.80
2022-09-05T14:51:26.218Z,29.50
2022-09-05T14:54:02.229Z,29.20
2022-09-05T14:57:23.815Z,29.50
2022-09-05T15:02:51.406Z,29.00
2022-09-05T15:02:52.076Z,28.80
2022-09-05T15:05:39.939Z,29.00
2022-09-05T15:08:39.575Z,29.20
2022-09-05T15:12:14.756Z,29.50
2022-09-05T15:13:58.133Z,29.20
2022-09-05T15:16:28.471Z,29.10
2022-09-05T15:18:58.449Z,29.00
2022-09-05T15:21:33.313Z,29.10
2022-09-05T15:24:17.410Z,28.90
2022-09-05T15:26:53.662Z,28.60
2022-09-05T15:29:25.991Z,28.70
2022-09-05T15:32:15.277Z,28.70
2022-09-05T15:34:43.629Z,28.50
2022-09-05T15:37:33.264Z,28.50
2022-09-05T15:40:21.857Z,28.30
2022-09-05T15:42:57.821Z,28.30
2022-09-05T15:45:32.151Z,28.30
2022-09-05T15:48:15.937Z,28.30
2022-09-05T15:50:51.429Z,28.30
2022-09-05T15:53:26.059Z,28.00
2022-09-05T15:55:56.435Z,28.00
2022-09-05T15:58:52.115Z,28.10
2022-09-05T16:01:48.525Z,28.10
2022-09-05T16:10:26.829Z,28.50
2022-09-05T16:10:30.983Z,28.20
2022-09-05T16:10:33.562Z,27.40
2022-09-05T16:12:48.376Z,28.00
2022-09-05T16:17:37.740Z,28.10
2022-09-05T16:23:14.997Z,28.20
2022-09-05T16:23:24.774Z,27.90
2022-09-05T16:24:07.270Z,27.60
2022-09-05T16:26:45.130Z,27.60
2022-09-05T16:29:26.150Z,27.50
2022-09-05T16:32:15.854Z,27.40
2022-09-05T16:34:54.785Z,27.30
2022-09-05T16:37:36.281Z,27.20
2022-09-05T16:40:16.780Z,27.20
2022-09-05T16:42:53.197Z,27.10
2022-09-05T16:50:50.550Z,26.40
2022-09-05T16:53:34.057Z,26.30
2022-09-05T16:56:10.848Z,26.10
2022-09-05T16:58:43.879Z,26.10
2022-09-05T17:01:30.574Z,25.90
2022-09-05T17:04:09.382Z,25.70
2022-09-05T17:06:52.928Z,25.50
2022-09-05T17:09:26.259Z,25.20
2022-09-05T17:12:02.108Z,25.10
2022-09-05T17:14:37.843Z,24.80
2022-09-05T17:18:18.482Z,24.50
2022-09-05T17:20:14.518Z,24.10
2022-09-05T17:24:47.841Z,23.90
2022-09-05T17:29:29.470Z,23.70
2022-09-05T17:31:59.257Z,23.00
2022-09-05T17:35:17.856Z,22.70
2022-09-05T17:38:29.694Z,22.50
2022-09-05T17:41:26.857Z,22.20
2022-09-05T17:44:07.457Z,22.00
2022-09-05T17:46:47.850Z,21.80
2022-09-05T17:49:43.175Z,21.70
2022-09-05T17:52:24.010Z,21.40
2022-09-05T17:54:55.449Z,21.30
2022-09-05T17:57:42.452Z,21.20
2022-09-05T18:01:05.377Z,21.10
2022-09-05T18:07:00.396Z,20.80
2022-09-05T18:10:14.757Z,20.70
2022-09-05T18:13:13.549Z,20.50
2022-09-05T18:16:11.942Z,20.30
2022-09-05T18:21:57.989Z,20.10
2022-09-05T18:24:40.054Z,20.00
2022-09-05T18:27:37.924Z,19.90
2022-09-05T18:33:56.021Z,19.80
2022-09-05T18:36:35.021Z,19.70
2022-09-05T18:39:42.774Z,19.80
2022-09-05T18:42:33.295Z,19.70
2022-09-05T18:45:15.306Z,19.60
2022-09-05T18:47:58.918Z,19.50
2022-09-05T18:50:33.034Z,19.50
2022-09-05T18:53:09.431Z,19.40
2022-09-05T18:56:12.582Z,19.40
2022-09-05T18:59:09.881Z,19.30
2022-09-05T19:01:45.483Z,19.20
2022-09-05T19:04:38.963Z,19.20
2022-09-05T19:07:13.645Z,19.20
2022-09-05T19:10:02.109Z,19.20
2022-09-05T19:12:57.102Z,19.10
2022-09-05T19:18:26.135Z,19.10
2022-09-05T19:21:12.534Z,19.00
2022-09-05T19:23:50.834Z,19.10
2022-09-05T19:36:17.779Z,19.00
2022-09-05T19:36:57.695Z,20.10
2022-09-05T19:37:08.706Z,18.90
2022-09-05T19:37:46.294Z,18.80
2022-09-05T19:47:38.726Z,18.80
2022-09-05T19:47:47.527Z,18.70
2022-09-05T19:49:08.278Z,18.60
2022-09-05T19:51:37.479Z,18.60
2022-09-05T19:54:08.714Z,18.60
2022-09-05T19:56:41.078Z,18.60
2022-09-05T19:59:22.547Z,18.60
2022-09-05T20:01:53.177Z,18.60
2022-09-05T20:04:26.514Z,18.60
2022-09-05T20:09:27.686Z,18.70
2022-09-05T20:11:58.946Z,18.60
2022-09-05T20:14:30.950Z,18.50
2022-09-05T20:17:18.041Z,18.50
2022-09-05T20:22:48.911Z,18.40
2022-09-05T20:28:10.579Z,18.40
2022-09-05T20:30:45.939Z,18.40
2022-09-05T20:43:14.579Z,17.60
2022-09-05T20:44:48.444Z,18.10
2022-09-05T20:53:01.267Z,18.00
2022-09-05T20:54:20.750Z,18.00
2022-09-05T20:58:51.533Z,17.90
2022-09-05T21:01:24.493Z,17.80
2022-09-05T21:04:00.060Z,17.90
2022-09-05T21:06:33.821Z,17.80
2022-09-05T21:11:56.078Z,17.80
2022-09-05T21:17:14.774Z,17.70
2022-09-05T21:19:53.717Z,17.70
2022-09-05T21:22:30.292Z,17.60
2022-09-05T21:25:43.662Z,17.60
2022-09-05T21:28:32.665Z,17.60
2022-09-05T21:31:16.035Z,17.50
2022-09-05T21:33:46.318Z,17.50
2022-09-05T21:36:16.541Z,17.60
2022-09-05T21:38:45.416Z,17.50
2022-09-05T21:41:17.569Z,17.50
2022-09-05T21:47:36.027Z,17.50
2022-09-05T21:47:43.874Z,17.50
2022-09-05T21:49:25.765Z,17.50
2022-09-05T21:51:54.154Z,17.40
2022-09-05T21:58:15.986Z,17.40
2022-09-05T21:59:29.385Z,17.40
2022-09-05T22:00:11.391Z,17.40
2022-09-05T22:02:49.534Z,17.30
2022-09-05T22:05:20.194Z,17.30
2022-09-05T22:07:53.371Z,17.30
2022-09-05T22:10:22.351Z,17.30
2022-09-05T22:13:10.626Z,17.30
2022-09-05T22:15:39.632Z,17.40
2022-09-05T22:21:31.610Z,17.30
2022-09-05T22:23:48.857Z,17.30
2022-09-05T22:28:49.719Z,17.20
2022-09-05T22:31:19.306Z,17.10
2022-09-05T22:36:19.873Z,17.00
2022-09-05T22:38:48.252Z,18.50
2022-09-05T22:41:17.175Z,17.00
2022-09-05T22:43:46.400Z,17.00
2022-09-05T22:46:15.219Z,17.00
2022-09-05T22:48:43.539Z,16.90
2022-09-05T22:51:13.605Z,16.90
2022-09-05T22:53:41.941Z,16.90
2022-09-05T22:56:11.031Z,16.80
2022-09-05T22:58:41.301Z,16.80
2022-09-05T23:01:11.027Z,16.80
2022-09-05T23:03:39.529Z,16.80
2022-09-05T23:06:10.566Z,16.70
2022-09-05T23:08:40.337Z,16.70
2022-09-05T23:11:09.733Z,16.80
2022-09-05T23:13:38.052Z,16.70
2022-09-05T23:16:07.353Z,16.60
2022-09-05T23:18:36.032Z,16.60
2022-09-05T23:21:06.197Z,16.50
2022-09-05T23:23:34.623Z,16.60
2022-09-05T23:26:07.682Z,16.60
2022-09-05T23:28:40.719Z,16.60
2022-09-05T23:31:13.113Z,15.90
2022-09-05T23:33:42.743Z,16.60
2022-09-05T23:36:14.632Z,16.60
2022-09-05T23:38:43.702Z,16.90
2022-09-05T23:41:16.103Z,16.60
2022-09-05T23:43:44.780Z,16.60
2022-09-05T23:51:14.088Z,15.80
2022-09-05T23:53:42.882Z,16.50
2022-09-05T23:56:12.630Z,16.40
2022-09-05T23:58:41.434Z,16.50
